Terminal Aerodrome Forecast
Issued by NWS Jackson, MS

Home | Current Version | Previous Version | Text Only | Print | Product List | Glossary On
Versions: 1 2 3 4 5 6 7 8 9 10 11 12 13 14 15
000
FTUS44 KJAN 261120
TAFMEI
TAF
KMEI 261120Z 2612/2712 22005KT 5SM -RA BR BKN013
     FM261300 22006KT P6SM VCSH BKN008
     FM261500 27012KT P6SM VCSH BKN015
     FM261700 28013KT P6SM VCSH BKN025
     FM270000 30006KT P6SM FEW025 SCT050
     FM270600 32003KT 3SM BR SCT025 BKN250
     FM270800 00000KT 2SM BR BKN015=

USA.gov is the U.S. government's official web portal to all federal, state and local government web resources and services.